createdAt,value
2023-04-09T00:00:10.782Z,6.21
2023-04-09T00:01:10.772Z,6.36
2023-04-09T00:02:10.819Z,6.40
2023-04-09T00:03:10.820Z,6.33
2023-04-09T00:04:10.840Z,6.32
2023-04-09T00:05:10.708Z,6.38
2023-04-09T00:06:10.700Z,6.36
2023-04-09T00:07:10.681Z,6.32
2023-04-09T00:08:10.667Z,6.33
2023-04-09T00:09:10.656Z,6.42
2023-04-09T00:10:10.644Z,6.39
2023-04-09T00:11:10.626Z,6.38
2023-04-09T00:12:10.620Z,6.25
2023-04-09T00:13:10.599Z,6.45
2023-04-09T00:14:10.619Z,6.35
2023-04-09T00:15:13.101Z,6.33
2023-04-09T00:16:11.607Z,6.40
2023-04-09T00:17:10.552Z,6.45
2023-04-09T00:18:10.531Z,6.48
2023-04-09T00:19:10.515Z,6.39
2023-04-09T00:20:10.502Z,6.45
2023-04-09T00:21:10.484Z,6.38
2023-04-09T00:22:10.477Z,6.30
2023-04-09T00:23:11.779Z,6.38
2023-04-09T00:24:10.453Z,6.36
2023-04-09T00:25:10.460Z,6.39
2023-04-09T00:26:10.423Z,6.40
2023-04-09T00:27:10.420Z,6.45
2023-04-09T00:28:10.407Z,6.39
2023-04-09T00:29:10.382Z,6.30
2023-04-09T00:30:10.395Z,6.38
2023-04-09T00:31:10.392Z,6.48
2023-04-09T00:32:10.336Z,6.35
2023-04-09T00:33:10.325Z,6.43
2023-04-09T00:34:10.311Z,6.32
2023-04-09T00:35:10.298Z,6.30
2023-04-09T00:36:10.302Z,6.30
2023-04-09T00:37:10.266Z,6.38
2023-04-09T00:38:10.265Z,6.35
2023-04-09T00:39:10.246Z,6.39
2023-04-09T00:40:10.241Z,6.35
2023-04-09T00:41:10.219Z,6.38
2023-04-09T00:42:10.204Z,6.38
2023-04-09T00:43:10.197Z,6.39
2023-04-09T00:44:10.186Z,6.46
2023-04-09T00:45:10.229Z,6.38
2023-04-09T00:46:10.192Z,6.40
2023-04-09T00:47:10.132Z,6.39
2023-04-09T00:48:10.131Z,6.39
2023-04-09T00:49:10.105Z,6.43
2023-04-09T00:50:10.090Z,6.36
2023-04-09T00:51:10.080Z,6.35
2023-04-09T00:52:10.064Z,6.33
2023-04-09T00:53:10.050Z,6.35
2023-04-09T00:54:10.047Z,6.38
2023-04-09T00:55:10.036Z,6.35
2023-04-09T00:56:10.037Z,6.19
2023-04-09T00:57:10.005Z,6.36
2023-04-09T00:58:09.989Z,6.19
2023-04-09T00:59:09.984Z,6.33
2023-04-09T01:00:09.957Z,6.30
2023-04-09T01:01:09.963Z,6.35
2023-04-09T01:02:09.983Z,6.28
2023-04-09T01:03:09.997Z,6.21
2023-04-09T01:04:09.908Z,6.35
2023-04-09T01:05:09.892Z,6.25
2023-04-09T01:06:09.876Z,6.20
2023-04-09T01:07:09.859Z,6.28
2023-04-09T01:08:09.841Z,6.25
2023-04-09T01:09:09.831Z,6.20
2023-04-09T01:10:09.822Z,6.27
2023-04-09T01:11:09.848Z,6.35
2023-04-09T01:12:09.800Z,6.30
2023-04-09T01:13:09.778Z,6.27
2023-04-09T01:14:09.767Z,6.33
2023-04-09T01:15:09.776Z,6.38
2023-04-09T01:16:09.781Z,6.25
2023-04-09T01:17:09.743Z,6.30
2023-04-09T01:18:09.795Z,6.21
2023-04-09T01:19:09.692Z,6.13
2023-04-09T01:20:09.676Z,6.38
2023-04-09T01:21:09.661Z,6.24
2023-04-09T01:22:09.659Z,6.30
2023-04-09T01:23:09.642Z,6.27
2023-04-09T01:24:09.627Z,6.21
2023-04-09T01:25:09.612Z,6.21
2023-04-09T01:26:09.599Z,6.25
2023-04-09T01:27:09.598Z,6.27
2023-04-09T01:28:09.565Z,6.25
2023-04-09T01:29:09.562Z,6.14
2023-04-09T01:30:09.550Z,6.14
2023-04-09T01:31:09.654Z,6.19
2023-04-09T01:32:09.533Z,6.19
2023-04-09T01:33:09.854Z,6.14
2023-04-09T01:34:09.518Z,6.21
2023-04-09T01:35:09.487Z,6.21
2023-04-09T01:36:09.505Z,6.21
2023-04-09T01:37:09.451Z,6.24
2023-04-09T01:38:09.435Z,6.13
2023-04-09T01:39:09.433Z,6.17
2023-04-09T01:40:09.403Z,6.16
2023-04-09T01:41:09.395Z,6.16
2023-04-09T01:42:09.371Z,6.14
2023-04-09T01:43:09.360Z,6.13
2023-04-09T01:44:09.346Z,6.10
2023-04-09T01:45:09.338Z,6.14
2023-04-09T01:46:09.356Z,6.19
2023-04-09T01:47:09.307Z,6.17
2023-04-09T01:48:09.290Z,6.10
2023-04-09T01:49:09.280Z,6.11
2023-04-09T01:50:09.290Z,6.06
2023-04-09T01:51:09.258Z,6.06
2023-04-09T01:52:09.252Z,6.10
2023-04-09T01:53:09.228Z,6.10
2023-04-09T01:54:09.215Z,6.13
2023-04-09T01:55:09.208Z,6.14
2023-04-09T01:56:09.200Z,6.03
2023-04-09T01:57:09.172Z,6.05
2023-04-09T01:58:09.160Z,6.10
2023-04-09T01:59:09.144Z,6.03
2023-04-09T02:00:09.137Z,6.11
2023-04-09T02:01:09.181Z,6.05
2023-04-09T02:02:09.228Z,6.06
2023-04-09T02:03:09.262Z,6.20
2023-04-09T02:04:09.076Z,6.05
2023-04-09T02:05:09.062Z,6.08
2023-04-09T02:06:09.077Z,5.98
2023-04-09T02:07:09.039Z,5.99
2023-04-09T02:08:09.019Z,6.06
2023-04-09T02:09:09.005Z,5.93
2023-04-09T02:10:08.987Z,6.01
2023-04-09T02:11:08.995Z,5.90
2023-04-09T02:12:08.963Z,5.92
2023-04-09T02:13:08.955Z,5.84
2023-04-09T02:14:08.965Z,5.96
2023-04-09T02:15:08.925Z,5.92
2023-04-09T02:16:08.966Z,5.92
2023-04-09T02:17:08.899Z,5.87
2023-04-09T02:18:08.883Z,5.83
2023-04-09T02:19:08.869Z,5.85
2023-04-09T02:20:08.875Z,5.74
2023-04-09T02:21:08.844Z,5.85
2023-04-09T02:22:08.866Z,5.80
2023-04-09T02:23:08.811Z,5.81
2023-04-09T02:24:09.049Z,5.77
2023-04-09T02:25:08.983Z,5.77
2023-04-09T02:26:08.779Z,5.77
2023-04-09T02:27:08.904Z,5.75
2023-04-09T02:28:08.741Z,5.67
2023-04-09T02:29:08.778Z,5.56
2023-04-09T02:30:08.721Z,5.60
2023-04-09T02:31:08.705Z,5.59
2023-04-09T02:32:08.682Z,5.60
2023-04-09T02:33:08.676Z,5.55
2023-04-09T02:34:08.662Z,5.56
2023-04-09T02:35:08.652Z,5.51
2023-04-09T02:36:08.649Z,5.38
2023-04-09T02:37:08.619Z,5.48
2023-04-09T02:38:08.629Z,5.56
2023-04-09T02:39:08.598Z,5.52
2023-04-09T02:40:08.582Z,5.48
2023-04-09T02:41:08.577Z,5.55
2023-04-09T02:42:08.550Z,5.56
2023-04-09T02:43:08.539Z,5.59
2023-04-09T02:44:08.525Z,5.51
2023-04-09T02:45:08.515Z,5.48
2023-04-09T02:46:08.519Z,5.49
2023-04-09T02:47:08.487Z,5.52
2023-04-09T02:48:08.470Z,5.55
2023-04-09T02:49:08.462Z,5.48
2023-04-09T02:50:08.612Z,5.52
2023-04-09T02:51:08.433Z,5.47
2023-04-09T02:52:08.418Z,5.51
2023-04-09T02:53:08.411Z,5.41
2023-04-09T02:54:08.415Z,5.47
2023-04-09T02:55:08.385Z,5.41
2023-04-09T02:56:08.376Z,5.56
2023-04-09T02:57:08.558Z,5.55
2023-04-09T02:58:08.437Z,5.48
2023-04-09T02:59:08.320Z,5.51
2023-04-09T03:00:08.343Z,5.58
2023-04-09T03:01:08.297Z,5.52
2023-04-09T03:02:08.352Z,5.52
2023-04-09T03:03:08.474Z,5.52
2023-04-09T03:04:08.414Z,5.55
2023-04-09T03:05:08.241Z,5.52
2023-04-09T03:06:08.253Z,5.55
2023-04-09T03:07:08.220Z,5.56
2023-04-09T03:08:08.206Z,5.60
2023-04-09T03:09:08.192Z,5.55
2023-04-09T03:10:08.203Z,5.59
2023-04-09T03:11:08.159Z,5.59
2023-04-09T03:12:08.140Z,5.58
2023-04-09T03:13:08.139Z,5.55
2023-04-09T03:14:08.113Z,5.62
2023-04-09T03:15:08.104Z,5.66
2023-04-09T03:16:08.162Z,5.65
2023-04-09T03:17:08.072Z,5.56
2023-04-09T03:18:08.079Z,5.59
2023-04-09T03:19:08.053Z,5.62
2023-04-09T03:20:08.040Z,5.67
2023-04-09T03:21:08.035Z,5.69
2023-04-09T03:22:08.019Z,5.56
2023-04-09T03:23:08.197Z,5.59
2023-04-09T03:24:07.984Z,5.60
2023-04-09T03:25:07.971Z,5.48
2023-04-09T03:26:08.224Z,5.59
2023-04-09T03:27:07.956Z,5.58
2023-04-09T03:28:07.939Z,5.66
2023-04-09T03:29:07.921Z,5.63
2023-04-09T03:30:07.901Z,5.58
2023-04-09T03:31:07.946Z,5.59
2023-04-09T03:32:07.873Z,5.55
2023-04-09T03:33:07.865Z,5.62
2023-04-09T03:34:07.848Z,5.45
2023-04-09T03:35:07.832Z,5.59
2023-04-09T03:36:07.886Z,5.58
2023-04-09T03:37:07.806Z,5.49
2023-04-09T03:38:07.799Z,5.49
2023-04-09T03:39:07.778Z,5.49
2023-04-09T03:40:07.762Z,5.60
2023-04-09T03:41:07.751Z,5.47
2023-04-09T03:42:07.768Z,5.60
2023-04-09T03:43:07.729Z,5.55
2023-04-09T03:44:07.719Z,5.49
2023-04-09T03:45:07.705Z,5.44
2023-04-09T03:46:07.748Z,5.49
2023-04-09T03:47:07.693Z,5.51
2023-04-09T03:48:07.671Z,5.55
2023-04-09T03:49:07.658Z,5.48
2023-04-09T03:50:07.641Z,5.49
2023-04-09T03:51:07.612Z,5.52
2023-04-09T03:52:07.613Z,5.52
2023-04-09T03:53:07.603Z,5.48
2023-04-09T03:54:07.574Z,5.45
2023-04-09T03:55:07.562Z,5.59
2023-04-09T03:56:07.553Z,5.49
2023-04-09T03:57:07.535Z,5.47
2023-04-09T03:58:07.550Z,5.48
2023-04-09T03:59:07.811Z,5.51
2023-04-09T04:00:07.504Z,5.47
2023-04-09T04:01:07.480Z,5.47
2023-04-09T04:02:07.522Z,5.58
2023-04-09T04:03:07.695Z,5.41
2023-04-09T04:04:07.490Z,5.45
2023-04-09T04:05:07.424Z,5.44
2023-04-09T04:06:07.417Z,5.42
2023-04-09T04:07:07.501Z,5.38
2023-04-09T04:08:07.388Z,5.56
2023-04-09T04:09:07.371Z,5.48
2023-04-09T04:10:07.364Z,5.44
2023-04-09T04:11:07.365Z,5.42
2023-04-09T04:12:07.340Z,5.48
2023-04-09T04:13:07.365Z,5.37
2023-04-09T04:14:07.348Z,5.40
2023-04-09T04:15:07.298Z,5.33
2023-04-09T04:16:07.299Z,5.47
2023-04-09T04:17:07.258Z,5.38
2023-04-09T04:18:07.247Z,5.44
2023-04-09T04:19:07.543Z,5.44
2023-04-09T04:20:07.224Z,5.49
2023-04-09T04:21:07.252Z,5.49
2023-04-09T04:22:07.197Z,5.52
2023-04-09T04:23:07.180Z,5.49
2023-04-09T04:24:07.174Z,5.37
2023-04-09T04:25:07.158Z,5.42
2023-04-09T04:26:07.142Z,5.52
2023-04-09T04:27:07.144Z,5.41
2023-04-09T04:28:07.117Z,5.40
2023-04-09T04:29:07.101Z,5.48
2023-04-09T04:30:07.114Z,5.49
2023-04-09T04:31:07.073Z,5.49
2023-04-09T04:32:07.110Z,5.41
2023-04-09T04:33:07.054Z,5.44
2023-04-09T04:34:07.043Z,5.47
2023-04-09T04:35:07.021Z,5.52
2023-04-09T04:36:07.010Z,5.49
2023-04-09T04:37:06.993Z,5.48
2023-04-09T04:38:06.978Z,5.52
2023-04-09T04:39:06.962Z,5.49
2023-04-09T04:40:06.953Z,5.58
2023-04-09T04:41:07.287Z,5.41
2023-04-09T04:42:06.932Z,5.52
2023-04-09T04:43:06.909Z,5.45
2023-04-09T04:44:06.898Z,5.47
2023-04-09T04:45:06.989Z,5.56
2023-04-09T04:46:06.916Z,5.59
2023-04-09T04:47:06.857Z,5.47
2023-04-09T04:48:06.847Z,5.47
2023-04-09T04:49:06.828Z,5.58
2023-04-09T04:50:06.821Z,5.51
2023-04-09T04:51:06.809Z,5.51
2023-04-09T04:52:06.799Z,5.47
2023-04-09T04:53:06.800Z,5.56
2023-04-09T04:54:06.765Z,5.44
2023-04-09T04:55:06.745Z,5.44
2023-04-09T04:56:06.738Z,5.42
2023-04-09T04:57:06.724Z,5.49
2023-04-09T04:58:06.707Z,5.55
2023-04-09T04:59:06.692Z,5.55
2023-04-09T05:00:06.685Z,5.38
2023-04-09T05:01:06.725Z,5.42
2023-04-09T05:02:06.783Z,5.48
2023-04-09T05:03:06.816Z,5.49
2023-04-09T05:04:06.634Z,5.49
2023-04-09T05:05:06.619Z,5.49
2023-04-09T05:06:06.598Z,5.56
2023-04-09T05:07:06.595Z,5.55
2023-04-09T05:08:06.569Z,5.55
2023-04-09T05:09:06.599Z,5.42
2023-04-09T05:10:06.550Z,5.45
2023-04-09T05:11:06.528Z,5.48
2023-04-09T05:12:06.565Z,5.59
2023-04-09T05:13:06.517Z,5.52
2023-04-09T05:14:06.486Z,5.49
2023-04-09T05:15:06.470Z,5.55
2023-04-09T05:16:06.469Z,5.63
2023-04-09T05:17:06.444Z,5.60
2023-04-09T05:18:06.478Z,5.60
2023-04-09T05:19:06.430Z,5.67
2023-04-09T05:20:06.411Z,5.59
2023-04-09T05:21:06.393Z,5.69
2023-04-09T05:22:06.386Z,5.67
2023-04-09T05:23:06.378Z,5.65
2023-04-09T05:24:06.359Z,5.69
2023-04-09T05:25:06.597Z,5.81
2023-04-09T05:26:06.324Z,5.77
2023-04-09T05:27:06.315Z,5.77
2023-04-09T05:28:06.304Z,5.70
2023-04-09T05:29:06.480Z,5.77
2023-04-09T05:30:06.274Z,5.85
2023-04-09T05:31:06.310Z,5.92
2023-04-09T05:32:06.256Z,6.02
2023-04-09T05:33:06.229Z,5.87
2023-04-09T05:34:06.277Z,5.93
2023-04-09T05:35:06.216Z,5.98
2023-04-09T05:36:06.278Z,6.08
2023-04-09T05:37:06.182Z,6.02
2023-04-09T05:38:06.479Z,6.08
2023-04-09T05:39:06.190Z,6.02
2023-04-09T05:40:06.130Z,6.05
2023-04-09T05:41:06.116Z,6.08
2023-04-09T05:42:06.110Z,6.13
2023-04-09T05:43:06.114Z,6.06
2023-04-09T05:44:06.082Z,6.13
2023-04-09T05:45:06.069Z,6.08
2023-04-09T05:46:06.085Z,6.25
2023-04-09T05:47:06.047Z,6.14
2023-04-09T05:48:06.089Z,6.20
2023-04-09T05:49:06.018Z,6.20
2023-04-09T05:50:06.040Z,6.17
2023-04-09T05:51:05.981Z,6.27
2023-04-09T05:52:05.962Z,6.28
2023-04-09T05:53:05.950Z,6.21
2023-04-09T05:54:05.947Z,6.21
2023-04-09T05:55:05.930Z,6.38
2023-04-09T05:56:05.922Z,6.32
2023-04-09T05:57:05.910Z,6.39
2023-04-09T05:58:05.889Z,6.45
2023-04-09T05:59:05.871Z,6.48
2023-04-09T06:00:05.857Z,6.50
2023-04-09T06:01:05.853Z,6.50
2023-04-09T06:02:05.939Z,6.57
2023-04-09T06:03:05.936Z,6.61
2023-04-09T06:04:06.018Z,6.61
2023-04-09T06:05:05.793Z,6.58
2023-04-09T06:06:05.796Z,6.58
2023-04-09T06:07:05.763Z,6.71
2023-04-09T06:08:05.749Z,6.86
2023-04-09T06:09:05.841Z,7.37
2023-04-09T06:10:05.727Z,7.63
2023-04-09T06:11:05.962Z,8.07
2023-04-09T06:12:05.706Z,8.49
2023-04-09T06:13:05.687Z,8.78
2023-04-09T06:14:05.672Z,9.22
2023-04-09T06:15:05.649Z,9.42
2023-04-09T06:16:05.686Z,9.58
2023-04-09T06:17:05.630Z,9.91
2023-04-09T06:18:05.626Z,10.20
2023-04-09T06:19:05.602Z,10.20
2023-04-09T06:20:05.588Z,10.46
2023-04-09T06:21:05.574Z,10.49
2023-04-09T06:22:05.696Z,10.75
2023-04-09T06:23:05.551Z,10.84
2023-04-09T06:24:05.533Z,10.95
2023-04-09T06:25:05.521Z,11.17
2023-04-09T06:26:05.507Z,11.26
2023-04-09T06:27:05.493Z,11.31
2023-04-09T06:28:05.479Z,11.39
2023-04-09T06:29:05.463Z,11.46
2023-04-09T06:30:05.443Z,11.64
2023-04-09T06:31:05.480Z,11.62
2023-04-09T06:32:05.425Z,11.45
2023-04-09T06:33:05.433Z,11.46
2023-04-09T06:34:05.391Z,11.48
2023-04-09T06:35:05.380Z,11.90
2023-04-09T06:36:05.433Z,12.05
2023-04-09T06:37:05.372Z,12.34
2023-04-09T06:38:05.381Z,12.51
2023-04-09T06:39:05.330Z,12.76
2023-04-09T06:40:05.324Z,13.03
2023-04-09T06:41:05.297Z,12.94
2023-04-09T06:42:05.294Z,12.77
2023-04-09T06:43:05.280Z,12.84
2023-04-09T06:44:05.256Z,13.16
2023-04-09T06:45:05.248Z,13.17
2023-04-09T06:46:05.236Z,13.35
2023-04-09T06:47:05.216Z,13.48
2023-04-09T06:48:05.254Z,13.61
2023-04-09T06:49:05.188Z,13.51
2023-04-09T06:50:05.201Z,13.65
2023-04-09T06:51:05.165Z,13.79
2023-04-09T06:52:05.149Z,13.99
2023-04-09T06:53:05.236Z,14.09
2023-04-09T06:54:05.144Z,14.09
2023-04-09T06:55:05.105Z,14.06
2023-04-09T06:56:05.098Z,14.35
2023-04-09T06:57:05.078Z,14.26
2023-04-09T06:58:05.066Z,14.31
2023-04-09T06:59:05.046Z,14.29
2023-04-09T07:00:05.036Z,14.31
2023-04-09T07:01:05.025Z,14.52
2023-04-09T07:02:05.109Z,14.78
2023-04-09T07:03:05.386Z,14.97
2023-04-09T07:04:05.073Z,15.05
2023-04-09T07:05:04.978Z,15.34
2023-04-09T07:06:04.965Z,15.28
2023-04-09T07:07:04.947Z,15.58
2023-04-09T07:08:05.203Z,15.68
2023-04-09T07:09:04.921Z,15.73
2023-04-09T07:10:04.922Z,15.64
2023-04-09T07:11:04.889Z,15.68
2023-04-09T07:12:04.904Z,15.62
2023-04-09T07:13:04.863Z,15.86
2023-04-09T07:14:04.849Z,16.01
2023-04-09T07:15:04.838Z,16.16
2023-04-09T07:16:04.849Z,16.34
2023-04-09T07:17:04.808Z,16.42
2023-04-09T07:18:04.861Z,16.29
2023-04-09T07:19:04.781Z,16.13
2023-04-09T07:20:04.778Z,16.40
2023-04-09T07:21:04.751Z,16.70
2023-04-09T07:22:04.734Z,16.81
2023-04-09T07:23:04.731Z,16.52
2023-04-09T07:24:04.704Z,16.41
2023-04-09T07:25:04.698Z,16.60
2023-04-09T07:26:04.916Z,16.66
2023-04-09T07:27:04.675Z,16.78
2023-04-09T07:28:04.696Z,16.70
2023-04-09T07:29:04.647Z,17.00
2023-04-09T07:30:04.629Z,17.25
2023-04-09T07:31:04.626Z,17.43
2023-04-09T07:32:04.605Z,17.53
2023-04-09T07:33:04.613Z,17.63
2023-04-09T07:34:04.575Z,17.42
2023-04-09T07:35:04.569Z,17.21
2023-04-09T07:36:04.586Z,17.35
2023-04-09T07:37:04.587Z,17.47
2023-04-09T07:38:04.529Z,17.74
2023-04-09T07:39:04.645Z,17.86
2023-04-09T07:40:04.549Z,17.86
2023-04-09T07:41:04.689Z,17.70
2023-04-09T07:42:04.490Z,17.57
2023-04-09T07:43:04.454Z,17.47
2023-04-09T07:44:04.461Z,17.58
2023-04-09T07:45:04.431Z,17.73
2023-04-09T07:46:04.507Z,18.02
2023-04-09T07:47:04.555Z,18.38
2023-04-09T07:48:04.426Z,18.78
2023-04-09T07:49:04.378Z,19.06
2023-04-09T07:50:04.385Z,19.02
2023-04-09T07:51:04.358Z,19.05
2023-04-09T07:52:04.342Z,19.32
2023-04-09T07:53:04.480Z,19.47
2023-04-09T07:54:04.312Z,19.42
2023-04-09T07:55:04.299Z,19.52
2023-04-09T07:56:04.284Z,19.78
2023-04-09T07:57:04.267Z,19.89
2023-04-09T07:58:04.295Z,19.92
2023-04-09T07:59:04.250Z,19.78
2023-04-09T08:00:04.232Z,19.87
2023-04-09T08:01:04.215Z,20.16
2023-04-09T08:02:04.328Z,20.30
2023-04-09T08:03:04.403Z,20.42
2023-04-09T08:04:04.533Z,20.46
2023-04-09T08:05:04.226Z,20.13
2023-04-09T08:06:04.213Z,19.98
2023-04-09T08:07:04.139Z,20.12
2023-04-09T08:08:04.120Z,19.34
2023-04-09T08:09:04.123Z,19.72
2023-04-09T08:10:04.111Z,19.97
2023-04-09T08:11:04.102Z,20.08
2023-04-09T08:12:04.226Z,19.95
2023-04-09T08:13:04.055Z,18.99
2023-04-09T08:14:04.073Z,18.17
2023-04-09T08:15:04.037Z,17.18
2023-04-09T08:16:04.174Z,16.36
2023-04-09T08:17:03.998Z,15.43
2023-04-09T08:18:04.032Z,15.31
2023-04-09T08:19:03.987Z,15.11
2023-04-09T08:20:03.987Z,14.95
2023-04-09T08:21:03.951Z,14.66
2023-04-09T08:22:03.938Z,14.59
2023-04-09T08:23:03.943Z,14.04
2023-04-09T08:24:03.983Z,13.46
2023-04-09T08:25:03.899Z,13.31
2023-04-09T08:26:03.881Z,13.09
2023-04-09T08:27:03.866Z,12.98
2023-04-09T08:28:03.851Z,12.94
2023-04-09T08:29:03.858Z,12.81
2023-04-09T08:30:03.849Z,12.87
2023-04-09T08:31:03.817Z,12.77
2023-04-09T08:32:03.872Z,12.55
2023-04-09T08:33:03.811Z,12.49
2023-04-09T08:34:03.785Z,12.44
2023-04-09T08:35:03.762Z,12.34
2023-04-09T08:36:03.743Z,12.25
2023-04-09T08:37:03.733Z,12.15
2023-04-09T08:38:03.717Z,12.21
2023-04-09T08:39:03.707Z,12.22
2023-04-09T08:40:03.705Z,12.12
2023-04-09T08:41:03.683Z,12.29
2023-04-09T08:42:03.667Z,12.29
2023-04-09T08:43:03.649Z,12.46
2023-04-09T08:44:03.648Z,12.26
2023-04-09T08:45:03.626Z,12.38
2023-04-09T08:46:03.753Z,12.29
2023-04-09T08:47:03.828Z,12.26
2023-04-09T08:48:03.763Z,12.26
2023-04-09T08:49:03.775Z,12.04
2023-04-09T08:50:03.761Z,12.03
2023-04-09T08:51:03.799Z,11.82
2023-04-09T08:52:03.835Z,11.64
2023-04-09T08:53:03.535Z,11.46
2023-04-09T08:54:05.206Z,11.41
2023-04-09T08:55:03.568Z,11.41
2023-04-09T08:56:03.478Z,11.46
2023-04-09T08:57:03.815Z,11.53
2023-04-09T08:58:03.444Z,11.49
2023-04-09T08:59:03.440Z,11.39
2023-04-09T09:00:03.418Z,11.39
2023-04-09T09:01:03.483Z,11.54
2023-04-09T09:02:03.747Z,11.45
2023-04-09T09:03:03.563Z,11.44
2023-04-09T09:04:03.411Z,11.26
2023-04-09T09:05:03.345Z,11.27
2023-04-09T09:06:03.358Z,11.23
2023-04-09T09:07:03.321Z,11.44
2023-04-09T09:08:03.356Z,11.45
2023-04-09T09:09:03.300Z,11.45
2023-04-09T09:10:03.302Z,11.69
2023-04-09T09:11:03.319Z,11.94
2023-04-09T09:12:03.253Z,12.55
2023-04-09T09:13:03.250Z,14.13
2023-04-09T09:14:03.232Z,15.18
2023-04-09T09:15:03.215Z,16.51
2023-04-09T09:16:03.205Z,17.70
2023-04-09T09:17:03.215Z,18.83
2023-04-09T09:18:03.281Z,19.53
2023-04-09T09:19:03.157Z,19.17
2023-04-09T09:20:03.145Z,19.30
2023-04-09T09:21:03.134Z,18.57
2023-04-09T09:22:03.116Z,18.17
2023-04-09T09:23:03.116Z,17.71
2023-04-09T09:24:03.086Z,16.96
2023-04-09T09:25:03.084Z,16.30
2023-04-09T09:26:03.066Z,15.86
2023-04-09T09:27:03.192Z,15.34
2023-04-09T09:28:03.044Z,15.12
2023-04-09T09:29:03.018Z,14.95
2023-04-09T09:30:03.264Z,14.60
2023-04-09T09:31:03.031Z,14.35
2023-04-09T09:32:02.991Z,14.29
2023-04-09T09:33:02.970Z,13.90
2023-04-09T09:34:02.976Z,13.65
2023-04-09T09:35:02.939Z,13.36
2023-04-09T09:36:03.022Z,13.17
2023-04-09T09:37:02.915Z,13.16
2023-04-09T09:38:02.910Z,13.14
2023-04-09T09:39:02.889Z,13.14
2023-04-09T09:40:02.880Z,13.17
2023-04-09T09:41:02.861Z,13.25
2023-04-09T09:42:02.852Z,13.31
2023-04-09T09:43:02.839Z,13.28
2023-04-09T09:44:02.834Z,13.25
2023-04-09T09:45:02.829Z,13.19
2023-04-09T09:46:02.840Z,13.16
2023-04-09T09:47:02.788Z,13.24
2023-04-09T09:48:02.803Z,13.13
2023-04-09T09:49:02.773Z,13.19
2023-04-09T09:50:02.760Z,13.27
2023-04-09T09:51:02.749Z,13.28
2023-04-09T09:52:02.730Z,13.36
2023-04-09T09:53:02.933Z,13.39
2023-04-09T09:54:02.692Z,13.51
2023-04-09T09:55:02.675Z,13.47
2023-04-09T09:56:02.656Z,13.29
2023-04-09T09:57:02.651Z,13.12
2023-04-09T09:58:02.633Z,13.01
2023-04-09T09:59:02.617Z,13.07
2023-04-09T10:00:02.619Z,13.03
2023-04-09T10:01:02.628Z,13.13
2023-04-09T10:02:02.658Z,13.25
2023-04-09T10:03:02.673Z,13.22
2023-04-09T10:04:02.579Z,13.38
2023-04-09T10:05:02.550Z,13.38
2023-04-09T10:06:02.613Z,13.55
2023-04-09T10:07:02.605Z,13.69
2023-04-09T10:08:02.697Z,13.83
2023-04-09T10:09:02.485Z,13.91
2023-04-09T10:10:02.487Z,14.13
2023-04-09T10:11:02.456Z,14.08
2023-04-09T10:12:02.436Z,13.86
2023-04-09T10:13:02.457Z,13.87
2023-04-09T10:14:02.416Z,13.86
2023-04-09T10:15:02.502Z,13.80
2023-04-09T10:16:02.567Z,13.53
2023-04-09T10:17:02.395Z,13.38
2023-04-09T10:18:02.386Z,13.25
2023-04-09T10:19:02.344Z,13.19
2023-04-09T10:20:02.335Z,13.04
2023-04-09T10:21:02.308Z,13.03
2023-04-09T10:22:02.324Z,12.81
2023-04-09T10:23:02.290Z,12.48
2023-04-09T10:24:02.323Z,12.19
2023-04-09T10:25:02.258Z,12.01
2023-04-09T10:26:02.250Z,11.93
2023-04-09T10:27:02.234Z,11.90
2023-04-09T10:28:02.277Z,11.77
2023-04-09T10:29:02.203Z,11.62
2023-04-09T10:30:02.201Z,11.66
2023-04-09T10:31:02.238Z,11.63
2023-04-09T10:32:02.178Z,11.79
2023-04-09T10:33:02.209Z,12.04
2023-04-09T10:34:02.228Z,12.21
2023-04-09T10:35:02.143Z,12.37
2023-04-09T10:36:02.170Z,12.55
2023-04-09T10:37:02.096Z,12.73
2023-04-09T10:38:02.102Z,12.91
2023-04-09T10:39:02.064Z,12.92
2023-04-09T10:40:02.053Z,12.91
2023-04-09T10:41:02.041Z,13.01
2023-04-09T10:42:02.035Z,13.10
2023-04-09T10:43:02.018Z,13.14
2023-04-09T10:44:02.002Z,13.31
2023-04-09T10:45:01.989Z,13.90
2023-04-09T10:46:02.018Z,14.34
2023-04-09T10:47:01.979Z,14.90
2023-04-09T10:48:02.028Z,15.53
2023-04-09T10:49:01.943Z,15.96
2023-04-09T10:50:01.920Z,16.08
2023-04-09T10:51:01.955Z,16.27
2023-04-09T10:52:01.898Z,16.26
2023-04-09T10:53:01.885Z,16.18
2023-04-09T10:54:01.894Z,15.99
2023-04-09T10:55:01.854Z,15.70
2023-04-09T10:56:01.855Z,15.46
2023-04-09T10:57:01.838Z,15.80
2023-04-09T10:58:01.811Z,15.93
2023-04-09T10:59:01.815Z,15.86
2023-04-09T11:00:01.789Z,15.81
2023-04-09T11:01:01.780Z,15.70
2023-04-09T11:02:01.859Z,15.55
2023-04-09T11:03:01.961Z,15.46
2023-04-09T11:04:01.724Z,15.43
2023-04-09T11:05:01.883Z,15.49
2023-04-09T11:06:01.751Z,15.58
2023-04-09T11:07:01.751Z,15.52
2023-04-09T11:08:01.697Z,15.55
2023-04-09T11:09:01.668Z,15.44
2023-04-09T11:10:01.690Z,15.35
2023-04-09T11:11:02.059Z,15.03
2023-04-09T11:12:01.640Z,14.67
2023-04-09T11:13:01.608Z,14.74
2023-04-09T11:14:01.600Z,14.61
2023-04-09T11:15:01.591Z,14.74
2023-04-09T11:16:01.685Z,15.09
2023-04-09T11:17:01.555Z,15.11
2023-04-09T11:18:01.582Z,15.00
2023-04-09T11:19:01.531Z,14.80
2023-04-09T11:20:01.509Z,14.53
2023-04-09T11:21:01.547Z,14.52
2023-04-09T11:22:01.485Z,14.44
2023-04-09T11:23:01.470Z,14.29
2023-04-09T11:24:01.454Z,14.30
2023-04-09T11:25:01.439Z,14.24
2023-04-09T11:26:01.458Z,14.39
2023-04-09T11:27:01.415Z,15.01
2023-04-09T11:28:01.406Z,15.05
2023-04-09T11:29:01.381Z,15.28
2023-04-09T11:30:01.365Z,15.35
2023-04-09T11:31:01.387Z,15.48
2023-04-09T11:32:01.435Z,15.74
2023-04-09T11:33:01.376Z,16.11
2023-04-09T11:34:01.317Z,16.57
2023-04-09T11:35:01.410Z,17.12
2023-04-09T11:36:01.328Z,16.92
2023-04-09T11:37:01.273Z,16.98
2023-04-09T11:38:01.267Z,17.60
2023-04-09T11:39:01.248Z,17.94
2023-04-09T11:40:01.235Z,17.80
2023-04-09T11:41:01.221Z,17.58
2023-04-09T11:42:01.227Z,17.12
2023-04-09T11:43:01.195Z,16.90
2023-04-09T11:44:01.180Z,16.91
2023-04-09T11:45:01.172Z,17.21
2023-04-09T11:46:01.158Z,18.10
2023-04-09T11:47:01.181Z,18.78
2023-04-09T11:48:01.221Z,18.62
2023-04-09T11:49:01.121Z,18.20
2023-04-09T11:50:01.115Z,17.84
2023-04-09T11:51:01.089Z,18.13
2023-04-09T11:52:01.077Z,19.06
2023-04-09T11:53:01.074Z,19.86
2023-04-09T11:54:01.055Z,20.97
2023-04-09T11:55:01.039Z,21.67
2023-04-09T11:56:01.032Z,22.29
2023-04-09T11:57:01.012Z,22.75
2023-04-09T11:58:01.237Z,22.27
2023-04-09T11:59:00.982Z,21.86
2023-04-09T12:00:02.577Z,22.12
2023-04-09T12:01:00.973Z,21.93
2023-04-09T12:02:01.019Z,22.39
2023-04-09T12:03:01.150Z,22.75
2023-04-09T12:04:01.362Z,22.56
2023-04-09T12:05:00.963Z,23.34
2023-04-09T12:06:00.909Z,22.52
2023-04-09T12:07:00.877Z,22.02
2023-04-09T12:08:00.862Z,21.36
2023-04-09T12:09:00.853Z,20.94
2023-04-09T12:10:00.846Z,20.37
2023-04-09T12:11:00.821Z,19.86
2023-04-09T12:12:00.831Z,19.39
2023-04-09T12:13:00.792Z,18.89
2023-04-09T12:14:00.808Z,18.60
2023-04-09T12:15:00.768Z,18.32
2023-04-09T12:16:00.997Z,18.16
2023-04-09T12:17:00.781Z,17.89
2023-04-09T12:18:00.778Z,18.38
2023-04-09T12:19:00.720Z,19.24
2023-04-09T12:20:00.709Z,20.07
2023-04-09T12:21:00.849Z,19.68
2023-04-09T12:22:00.685Z,20.22
2023-04-09T12:23:00.664Z,20.88
2023-04-09T12:24:00.659Z,21.68
2023-04-09T12:25:00.644Z,22.48
2023-04-09T12:26:00.630Z,22.63
2023-04-09T12:27:00.616Z,22.44
2023-04-09T12:28:00.599Z,22.45
2023-04-09T12:29:00.587Z,22.49
2023-04-09T12:30:00.600Z,22.20
2023-04-09T12:31:00.567Z,22.17
2023-04-09T12:32:00.582Z,22.46
2023-04-09T12:33:00.556Z,22.96
2023-04-09T12:34:00.527Z,23.35
2023-04-09T12:35:00.566Z,23.39
2023-04-09T12:36:00.543Z,23.29
2023-04-09T12:37:00.502Z,23.34
2023-04-09T12:38:00.475Z,23.47
2023-04-09T12:39:00.465Z,23.71
2023-04-09T12:40:00.453Z,23.82
2023-04-09T12:41:00.429Z,24.08
2023-04-09T12:42:00.433Z,24.12
2023-04-09T12:43:00.403Z,24.31
2023-04-09T12:44:00.402Z,24.63
2023-04-09T12:45:00.386Z,24.75
2023-04-09T12:46:00.443Z,24.67
2023-04-09T12:47:00.352Z,24.34
2023-04-09T12:48:00.380Z,23.97
2023-04-09T12:49:00.329Z,24.23
2023-04-09T12:50:00.322Z,24.53
2023-04-09T12:51:00.607Z,24.83
2023-04-09T12:52:00.286Z,24.84
2023-04-09T12:53:00.289Z,24.92
2023-04-09T12:54:00.269Z,25.29
2023-04-09T12:55:00.253Z,25.12
2023-04-09T12:56:00.238Z,25.45
2023-04-09T12:57:00.224Z,25.35
2023-04-09T12:58:00.311Z,25.34
2023-04-09T12:59:00.197Z,24.75
2023-04-09T13:00:00.231Z,24.30
2023-04-09T13:01:00.208Z,24.05
2023-04-09T13:02:00.328Z,23.37
2023-04-09T13:03:00.295Z,23.16
2023-04-09T13:04:00.330Z,22.82